Latest Weather Observations for Norfolk Island

IDN60801

Issued at 12:02 am EDT Saturday 10 December 2016 (issued every 30 minutes, with the page automatically refreshed every 10 minutes)

About weather observations | Map of weather stations | Latest weather observations for NSW | Other Formats
Station Details ID: 200288 Name: NORFOLK ISLAND AERO Lat: -29.04 Lon: 167.94 Height: 111.73 m
Data from the previous 72 hours. | See also: Recent months at Norfolk Island
Date/Time
EDT
Temp
°C
App
Temp
°C
Dew
Point
°C
Rel
Hum
%
Delta-T
°C
Wind Press
QNH
hPa
Press
MSL
hPa
Rain since
9am
mm
Dir  Spd
km/h
Gust
km/h
Spd
kts
Gust
kts
10/12:00am 21.7 22.3 21.1 96 0.4 WNW 19 30 10 16 1013.5 1013.1 1.0
 
Date/Time
EDT
Temp
°C
App
Temp
°C
Dew
Point
°C
Rel
Hum
%
Delta-T
°C
Wind Press
QNH
hPa
Press
MSL
hPa
Rain since
9am
mm
Dir  Spd
km/h
Gust
km/h
Spd
kts
Gust
kts
09/11:30pm 21.9 22.5 21.1 95 0.5 WNW 19 28 10 15 1013.9 1013.4 1.0
09/11:00pm 21.9 22.7 21.3 96 0.4 WNW 19 30 10 16 1014.0 1013.5 1.0
09/10:30pm 22.0 22.5 21.2 95 0.5 WNW 20 35 11 19 1014.3 1013.8 1.0
09/10:00pm 22.0 23.2 21.4 96 0.4 WNW 17 26 9 14 1014.3 1013.8 1.0
09/09:50pm 22.0 22.8 21.4 96 0.4 WNW 19 33 10 18 1014.3 1013.8 1.0
09/09:30pm 22.0 23.2 21.4 96 0.4 WNW 17 28 9 15 1014.1 1013.6 1.0
09/09:00pm 22.1 22.9 21.3 95 0.5 WNW 19 30 10 16 1013.8 1013.3 1.0
09/08:59pm 22.1 22.8 21.2 95 0.6 WNW 19 30 10 16 1013.9 1013.4 1.0
09/08:30pm 22.1 23.3 21.5 96 0.4 WNW 17 24 9 13 1013.8 1013.3 0.2
09/08:00pm 22.2 23.3 21.3 95 0.6 WNW 17 28 9 15 1013.5 1013.1 0.2
09/07:30pm 22.2 22.8 21.1 93 0.7 WNW 19 28 10 15 1013.2 1012.8 0.2
09/07:00pm 22.1 23.9 21.2 95 0.6 WNW 13 20 7 11 1012.8 1012.4 0.2
09/06:30pm 22.4 24.4 20.7 90 1.1 WNW 11 19 6 10 1012.5 1012.1 0.2
09/06:00pm 22.5 24.4 20.5 88 1.3 NW 11 20 6 11 1012.2 1011.8 0.2
09/05:30pm 22.7 23.8 20.4 87 1.5 WNW 15 26 8 14 1012.0 1011.6 0.2
09/05:12pm 23.7 25.6 20.5 82 2.1 WNW 11 19 6 10 1011.7 1011.3 0.2
09/05:04pm 23.8 25.0 20.6 82 2.1 WNW 15 24 8 13 1011.7 1011.3 0.2
09/05:00pm 23.0 24.0 20.2 84 1.8 WNW 15 24 8 13 1011.7 1011.3 0.2
09/04:30pm 23.2 24.6 20.3 84 1.9 WNW 13 19 7 10 1011.7 1011.3 0.2
09/04:00pm 23.0 23.8 19.9 83 2.0 WNW 15 22 8 12 1011.8 1011.4 0.2
09/03:53pm 23.0 23.5 20.1 84 1.9 WNW 17 24 9 13 1011.8 1011.4 0.2
09/03:30pm 23.7 25.5 20.3 81 2.2 NW 11 24 6 13 1011.9 1011.5 0.2
09/03:00pm 24.9 25.9 19.5 72 3.5 W 13 19 7 10 1011.9 1011.5 0.2
09/02:30pm 24.7 25.8 18.9 70 3.7 W 11 17 6 9 1012.1 1011.7 0.2
09/02:00pm 24.4 26.1 19.3 73 3.3 WSW 9 15 5 8 1012.2 1011.8 0.2
09/01:30pm 24.7 25.7 18.6 69 3.9 WSW 11 17 6 9 1012.4 1012.0 0.2
09/01:03pm 25.1 27.0 19.7 72 3.5 WSW 9 15 5 8 1012.3 1011.9 0.2
09/01:00pm 24.6 26.2 19.1 71 3.5 WSW 9 15 5 8 1012.3 1011.9 0.2
09/12:30pm 23.1 25.6 20.2 84 1.9 NNE 7 15 4 8 1012.6 1012.2 0.2
09/12:00pm 22.7 24.7 19.9 84 1.8 NE 9 13 5 7 1012.9 1012.5 0.2
09/11:30am 22.6 24.5 19.8 84 1.8 NE 9 13 5 7 1012.9 1012.5 0.2
09/11:00am 23.3 25.6 20.7 85 1.7 NE 9 13 5 7 1013.1 1012.7 0.0
09/10:30am 22.8 24.8 19.9 84 1.9 NNE 9 13 5 7 1013.1 1012.7 0.0
09/10:00am 22.2 23.8 20.0 87 1.4 NE 11 13 6 7 1013.2 1012.8 0.0
09/09:30am 21.6 23.8 19.7 89 1.2 NNE 7 11 4 6 1013.3 1012.9 0.0
09/09:00am 22.4 24.9 19.9 86 1.6 ENE 6 11 3 6 1013.3 1012.9 4.2
09/08:59am 22.6 25.2 20.1 86 1.6 E 6 11 3 6 1013.3 1012.9 4.2
09/08:30am 22.9 25.9 19.3 80 2.3 E 2 9 1 5 1013.4 1013.0 4.2
09/08:11am 21.8 24.2 18.8 83 1.9 ESE 4 7 2 4 1013.4 1013.0 4.2
09/08:08am 21.7 23.9 19.2 86 1.6 ESE 6 7 3 4 1013.4 1013.0 4.2
09/08:00am 21.4 23.4 19.2 87 1.4 SE 7 9 4 5 1013.4 1013.0 4.2
09/07:50am 20.9 22.7 18.7 87 1.4 SSE 7 9 4 5 1013.5 1013.1 4.2
09/07:47am 21.0 22.9 18.9 88 1.3 SSE 7 9 4 5 1013.5 1013.1 4.2
09/07:30am 21.2 24.1 19.0 87 1.4 ESE 2 7 1 4 1013.5 1013.1 4.2
09/07:00am 21.2 23.3 19.3 89 1.2 E 7 9 4 5 1013.2 1012.8 4.2
09/06:30am 20.4 22.2 19.5 95 0.6 E 9 11 5 6 1013.1 1012.7 4.2
09/06:00am 19.9 23.2 19.1 95 0.5 CALM 0 6 0 3 1013.0 1012.6 4.2
09/05:47am 19.8 21.8 19.2 96 0.4 NE 7 9 4 5 1012.8 1012.4 4.2
09/05:30am 19.9 22.9 19.3 96 0.4 E 2 9 1 5 1012.5 1012.1 4.2
09/05:19am 19.8 23.1 19.2 96 0.4 CALM 0 0 0 0 1012.5 1012.1 4.2
09/05:17am 19.7 23.0 19.1 96 0.4 CALM 0 0 0 0 1012.4 1012.0 4.2
09/05:00am 19.7 22.9 18.9 95 0.5 CALM 0 0 0 0 1012.3 1011.9 4.2
09/04:51am 19.7 22.9 18.9 95 0.5 CALM 0 0 0 0 1012.2 1011.8 4.2
09/04:30am 19.6 22.9 19.0 96 0.4 CALM 0 0 0 0 1012.1 1011.7 4.2
09/04:03am 19.7 21.9 19.1 96 0.4 E 6 6 3 3 1012.0 1011.6 4.0
09/04:00am 19.7 21.9 19.1 96 0.4 E 6 6 3 3 1012.0 1011.6 4.0
09/03:54am 19.7 22.3 19.2 97 0.3 E 4 6 2 3 1012.0 1011.6 4.0
09/03:45am 19.7 23.0 19.1 96 0.4 CALM 0 0 0 0 1011.9 1011.5 4.0
09/03:30am 19.7 21.9 19.1 96 0.4 E 6 7 3 4 1011.9 1011.5 4.0
09/03:27am 19.7 21.9 19.1 96 0.4 E 6 7 3 4 1011.9 1011.5 4.0
09/03:21am 19.7 21.9 19.1 96 0.4 E 6 7 3 4 1011.9 1011.5 4.0
09/03:01am 19.5 21.4 19.0 97 0.3 ESE 7 9 4 5 1011.8 1011.4 4.0
09/03:00am 19.5 21.4 18.9 96 0.4 SE 7 9 4 5 1011.8 1011.4 4.0
09/02:30am 19.6 21.7 19.0 96 0.4 SE 6 9 3 5 1011.8 1011.4 4.0
09/02:02am 19.8 22.7 19.0 95 0.5 SSE 2 9 1 5 1011.9 1011.5 4.0
09/02:00am 19.7 22.2 19.1 96 0.4 SSE 4 9 2 5 1011.9 1011.5 4.0
09/01:57am 19.7 21.9 19.1 96 0.4 SSE 6 9 3 5 1011.9 1011.5 4.0
09/01:38am 19.8 22.8 19.2 96 0.4 S 2 9 1 5 1011.8 1011.4 4.0
09/01:30am 19.8 23.1 19.0 95 0.5 CALM 0 0 0 0 1011.9 1011.5 3.8
09/01:20am 19.6 22.9 19.0 96 0.4 CALM 0 0 0 0 1011.8 1011.4 3.8
09/01:14am 19.6 22.8 18.8 95 0.5 CALM 0 0 0 0 1011.8 1011.4 3.8
09/01:00am 19.6 22.7 18.6 94 0.6 CALM 0 0 0 0 1011.8 1011.4 3.8
09/12:30am 19.5 21.6 18.9 96 0.4 S 6 9 3 5 1011.9 1011.5 3.8
09/12:00am 19.8 23.1 19.2 96 0.4 CALM 0 6 0 3 1012.1 1011.7 3.4
 
Date/Time
EDT
Temp
°C
App
Temp
°C
Dew
Point
°C
Rel
Hum
%
Delta-T
°C
Wind Press
QNH
hPa
Press
MSL
hPa
Rain since
9am
mm
Dir  Spd
km/h
Gust
km/h
Spd
kts
Gust
kts
08/11:59pm 19.9 23.1 18.9 94 0.6 CALM 0 0 0 0 1012.1 1011.7 3.4
08/11:45pm 19.7 23.0 19.1 96 0.4 CALM 0 0 0 0 1012.1 1011.7 3.4
08/11:30pm 19.9 21.6 19.3 96 0.4 S 9 9 5 5 1012.3 1011.9 3.2
08/11:00pm 20.0 21.4 19.5 97 0.3 S 11 13 6 7 1012.6 1012.2 3.2
08/10:30pm 20.2 21.6 19.6 96 0.4 SSW 11 13 6 7 1012.9 1012.5 3.2
08/10:00pm 20.3 22.2 19.7 96 0.4 SSW 9 13 5 7 1012.9 1012.5 3.0
08/09:30pm 20.3 22.2 19.7 96 0.4 SSW 9 13 5 7 1013.0 1012.6 2.8
08/09:00pm 20.6 21.4 19.8 95 0.5 SW 15 28 8 15 1012.7 1012.3 1.6
08/08:30pm 20.9 20.6 20.4 97 0.3 W 22 33 12 18 1012.6 1012.2 0.4
08/08:00pm 21.2 21.7 20.1 93 0.7 WNW 17 26 9 14 1012.4 1012.0 0.0
08/07:41pm 21.1 21.7 20.2 95 0.6 WNW 17 30 9 16 1012.3 1011.9 0.0
08/07:30pm 21.0 21.5 20.1 95 0.6 WNW 17 28 9 15 1012.3 1011.9 0.0
08/07:00pm 21.0 21.2 20.2 95 0.5 WNW 19 30 10 16 1012.2 1011.8 0.0
08/06:30pm 21.2 21.2 19.8 92 0.9 WNW 19 28 10 15 1011.9 1011.5 0.0
08/06:05pm 21.6 21.5 19.9 90 1.1 W 20 30 11 16 1011.6 1011.2 0.0
08/06:00pm 21.6 21.4 19.7 89 1.2 WNW 20 33 11 18 1011.7 1011.3 0.0
08/05:30pm 21.7 22.0 19.5 87 1.4 WNW 17 30 9 16 1011.4 1011.0 0.0
08/05:00pm 21.8 21.5 19.5 87 1.5 WNW 20 30 11 16 1011.1 1010.7 0.0
08/04:30pm 21.9 21.7 19.4 86 1.6 WNW 19 30 10 16 1010.9 1010.5 0.0
08/04:00pm 21.9 21.6 19.2 85 1.7 WNW 19 30 10 16 1011.0 1010.6 0.0
08/03:30pm 22.2 21.7 19.1 82 2.0 WNW 20 32 11 17 1011.0 1010.6 0.0
08/03:00pm 22.3 21.4 19.0 81 2.1 WNW 22 37 12 20 1011.1 1010.7 0.0
08/02:30pm 23.6 22.0 19.1 76 2.9 W 26 35 14 19 1011.1 1010.7 0.0
08/02:00pm 23.8 22.0 18.8 73 3.2 W 26 37 14 20 1011.3 1010.9 0.0
08/01:30pm 23.3 21.3 18.2 73 3.2 WNW 26 37 14 20 1011.4 1011.0 0.0
08/01:00pm 23.9 22.3 19.1 74 3.1 W 26 37 14 20 1011.7 1011.3 0.0
08/12:30pm 23.8 21.6 18.8 73 3.2 W 28 39 15 21 1011.8 1011.4 0.0
08/12:00pm 23.5 22.0 18.6 74 3.1 W 24 37 13 20 1012.0 1011.6 0.0
08/11:30am 24.0 22.2 18.8 72 3.3 W 26 39 14 21 1012.2 1011.8 0.0
08/11:00am 23.7 22.3 18.8 74 3.1 W 24 37 13 20 1012.4 1012.0 0.0
08/10:30am 23.7 21.3 18.3 71 3.4 W 28 39 15 21 1012.7 1012.3 0.0
08/10:00am 23.3 21.3 18.2 73 3.2 W 26 39 14 21 1012.7 1012.3 0.0
08/09:30am 22.9 20.4 18.1 74 3.0 W 28 39 15 21 1013.0 1012.6 0.0
08/09:00am 22.2 20.5 18.2 78 2.5 W 24 35 13 19 1013.2 1012.8 0.0
08/08:30am 22.2 21.4 18.4 79 2.4 WNW 20 32 11 17 1013.4 1013.0 0.0
08/08:00am 21.6 20.3 18.1 80 2.2 WNW 22 32 12 17 1013.8 1013.3 0.0
08/07:30am 21.6 20.5 17.7 78 2.4 WNW 20 32 11 17 1014.0 1013.5 0.0
08/07:00am 21.6 20.8 17.9 79 2.3 WNW 19 28 10 15 1014.1 1013.6 0.0
08/06:30am 21.9 21.3 17.5 76 2.7 WNW 17 26 9 14 1013.9 1013.4 0.0
08/06:00am 20.8 20.1 17.4 81 2.1 WNW 17 28 9 15 1013.5 1013.1 0.0
08/05:40am 20.8 20.0 17.0 79 2.3 WNW 17 28 9 15 1013.4 1013.0 0.0
08/05:30am 20.6 20.3 18.2 86 1.5 WNW 17 24 9 13 1013.7 1013.2 0.0
08/05:00am 20.5 20.2 18.3 87 1.4 WNW 17 28 9 15 1013.3 1012.9 0.0
08/04:30am 20.4 20.0 18.0 86 1.5 WNW 17 24 9 13 1013.2 1012.8 0.0
08/04:15am 20.4 19.5 17.8 85 1.6 WNW 19 30 10 16 1013.1 1012.7 0.0
08/04:00am 20.3 19.8 17.9 86 1.5 WNW 17 30 9 16 1013.0 1012.6 0.0
08/03:48am 20.3 19.8 17.7 85 1.6 WNW 17 28 9 15 1012.9 1012.5 0.0
08/03:30am 20.3 19.7 17.5 84 1.7 WNW 17 26 9 14 1012.8 1012.4 0.0
08/03:11am 20.3 19.7 17.5 84 1.7 WNW 17 28 9 15 1012.9 1012.5 0.0
08/03:00am 20.3 19.7 17.5 84 1.7 WNW 17 22 9 12 1013.1 1012.7 0.0
08/02:30am 20.2 19.9 17.4 84 1.7 WNW 15 22 8 12 1013.1 1012.7 0.0
08/02:00am 20.1 19.8 17.3 84 1.7 NW 15 24 8 13 1013.3 1012.9 0.0
08/01:30am 20.1 20.1 17.2 83 1.8 WNW 13 20 7 11 1013.7 1013.2 0.0
08/01:00am 20.1 20.4 17.0 82 1.9 WNW 11 19 6 10 1014.1 1013.6 0.0
08/12:30am 19.9 20.1 16.8 82 1.9 WNW 11 17 6 9 1014.4 1013.9 0.0
08/12:00am 20.0 19.7 16.4 80 2.2 NW 13 22 7 12 1014.9 1014.5 0.0
 
Date/Time
EDT
Temp
°C
App
Temp
°C
Dew
Point
°C
Rel
Hum
%
Delta-T
°C
Wind Press
QNH
hPa
Press
MSL
hPa
Rain since
9am
mm
Dir  Spd
km/h
Gust
km/h
Spd
kts
Gust
kts
07/11:30pm 20.0 20.1 16.4 80 2.2 WNW 11 20 6 11 1015.2 1014.8 0.0
07/11:00pm 19.8 20.2 16.3 80 2.1 NW 9 15 5 8 1015.1 1014.7 0.0
07/10:30pm 19.8 19.7 16.1 79 2.2 NW 11 17 6 9 1015.6 1015.2 0.0
07/10:00pm 19.9 20.3 16.2 79 2.2 NW 9 17 5 9 1016.0 1015.6 0.0
07/09:30pm 19.8 20.2 16.3 80 2.1 WNW 9 15 5 8 1016.3 1015.9 0.0
07/09:00pm 19.5 20.4 16.5 83 1.8 NW 7 13 4 7 1016.3 1015.9 0.0
07/08:30pm 19.7 20.4 16.2 80 2.1 NW 7 11 4 6 1016.3 1015.9 0.0
07/08:00pm 19.6 20.0 16.3 81 2.0 NNW 9 15 5 8 1016.1 1015.7 0.0
07/07:30pm 19.7 20.4 16.2 80 2.1 NNW 7 13 4 7 1015.9 1015.5 0.0
07/07:00pm 20.0 20.3 16.0 78 2.4 N 9 15 5 8 1015.9 1015.5 0.0
07/06:30pm 20.2 20.9 16.0 77 2.5 NNW 7 15 4 8 1016.1 1015.7 0.0
07/06:00pm 20.5 20.4 16.0 75 2.7 NW 11 17 6 9 1016.0 1015.6 0.0
07/05:30pm 21.0 21.0 16.2 74 2.9 NNW 11 17 6 9 1015.7 1015.3 0.0
07/05:00pm 21.4 21.0 16.3 72 3.1 NW 13 19 7 10 1015.6 1015.2 0.0
07/04:30pm 22.1 21.4 16.3 69 3.5 N 15 24 8 13 1015.6 1015.2 0.0
07/04:00pm 22.1 21.3 16.2 69 3.6 NW 15 22 8 12 1015.6 1015.2 0.0
07/03:30pm 22.3 21.7 15.7 66 4.0 NNW 13 20 7 11 1015.6 1015.2 0.0
07/03:00pm 22.4 21.1 15.8 66 4.0 N 17 24 9 13 1015.8 1015.4 0.0
07/02:30pm 22.6 22.1 16.0 66 4.0 NNW 13 20 7 11 1016.0 1015.6 0.0
07/02:00pm 21.9 20.9 15.6 67 3.8 N 15 22 8 12 1016.3 1015.9 0.0
07/01:30pm 22.3 21.8 14.9 63 4.4 NW 11 19 6 10 1016.7 1016.3 0.0
07/01:00pm 22.2 21.5 15.4 65 4.1 NNE 13 19 7 10 1016.4 1016.0 0.0
07/12:30pm 21.9 20.2 15.8 68 3.7 NNE 19 28 10 15 1016.3 1015.9 0.0
07/12:00pm 22.0 21.0 15.7 67 3.8 NNE 15 24 8 13 1016.2 1015.8 0.0
07/11:50am 22.2 21.9 15.5 66 4.0 NNE 11 20 6 11 1016.5 1016.1 0.0
07/11:30am 22.2 20.7 15.2 64 4.2 NNE 17 22 9 12 1016.9 1016.5 0.0
07/11:00am 21.7 20.2 15.3 67 3.8 NNE 17 24 9 13 1017.2 1016.8 0.0
07/10:30am 22.2 21.6 15.7 66 3.9 NNE 13 20 7 11 1017.5 1017.1 0.0
07/10:00am 21.4 20.8 14.6 65 4.0 NNE 11 15 6 8 1017.8 1017.4 0.0
07/09:30am 21.3 21.4 15.4 69 3.5 NE 9 15 5 8 1017.9 1017.5 0.0
07/09:00am 21.4 20.7 14.2 63 4.2 NNE 11 17 6 9 1018.1 1017.7 0.0
07/08:30am 21.7 20.8 15.9 69 3.5 NE 15 26 8 14 1018.1 1017.7 0.0
07/08:00am 20.5 19.6 14.9 70 3.3 NE 13 19 7 10 1018.1 1017.7 0.0
07/07:30am 20.5 19.8 15.5 73 3.0 NE 13 17 7 9 1018.2 1017.8 0.0
07/07:00am 20.5 19.7 15.1 71 3.2 NNE 13 19 7 10 1018.1 1017.7 0.0
07/06:30am 19.7 19.0 15.3 76 2.6 NE 13 17 7 9 1017.9 1017.5 0.0
07/06:00am 19.4 20.0 15.7 79 2.2 ENE 7 9 4 5 1017.5 1017.1 0.0
07/05:30am 18.6 18.9 15.0 79 2.1 NE 7 11 4 6 1016.8 1016.4 0.0
07/05:00am 18.4 18.3 15.0 80 2.0 NE 9 11 5 6 1016.3 1015.9 0.0
07/04:30am 18.2 17.8 15.3 83 1.7 ENE 11 15 6 8 1016.4 1016.0 0.0
07/04:00am 18.3 18.7 15.2 82 1.8 NE 7 11 4 6 1016.3 1015.9 0.0
07/03:30am 17.2 17.5 15.0 87 1.3 ENE 7 9 4 5 1015.8 1015.4 0.0
07/03:00am 17.0 18.6 14.8 87 1.3 CALM 0 0 0 0 1016.0 1015.6 0.0
07/02:30am 16.6 17.0 14.7 88 1.1 ENE 6 7 3 4 1016.1 1015.7 0.0
07/02:00am 16.6 16.8 14.7 88 1.1 NE 7 9 4 5 1015.9 1015.5 0.0
07/01:30am 17.0 17.1 14.4 85 1.5 NE 7 9 4 5 1016.5 1016.1 0.0
07/01:00am 17.1 17.1 14.3 83 1.6 NE 7 9 4 5 1017.1 1016.7 0.0
07/12:30am 17.2 17.2 14.2 82 1.7 NE 7 9 4 5 1017.4 1017.0 0.0
07/12:00am 17.5 17.6 14.4 82 1.8 ENE 7 11 4 6 1018.0 1017.6 0.0

Other Formats:

Comma delimited format used in spreadsheet applications
http://www.bom.gov.au/fwo/IDN60801/IDN60801.94996.axf

JavaScript Object Notation format (JSON) in row-major order
http://www.bom.gov.au/fwo/IDN60801/IDN60801.94996.json